Latest Coastal Weather Observations for McCluer Island

IDD60701

Issued at 1:45 am CST Monday 22 September 2014 (issued every 10 minutes, with the page automatically refreshed every 10 minutes)

About coastal observations | Map of coastal stations | Coastal observations for NT | Marine services | Other Formats
Station Details ID: 014274 Name: MCCLUER ISLAND Lat: -11.05 Lon: 132.98 Height: 1.4 m
Data from the previous 72 hours. | See also: Recent months at McCluer Island
Date/Time
CST
Temp

°C
Wind Pressure Rain
since 9am
mm
Weather Cloud Vis
km
Sea
Height
m
Swell
Dir
 
Speed
knots
Gust
knots
hPa Trend Height
m
Period
s
Dir
22/01:30am 26.0 ENE 12 13 1012.6 - 0.0 - - - - - - -
22/01:00am 26.0 E 11 13 1012.9 - 0.0 - - - - - - -
22/12:30am 26.0 ENE 11 12 1013.3 - 0.0 - - - - - - -
22/12:00am 26.2 ENE 9 11 1013.8 - 0.0 - - - - - - -
 
Date/Time
CST
Temp

°C
Wind Pressure Rain
since 9am
mm
Weather Cloud Vis
km
Sea
Height
m
Swell
Dir
 
Speed
knots
Gust
knots
hPa Trend Height
m
Period
s
Dir
21/11:30pm 26.1 NE 10 11 1013.9 - 0.0 - - - - - - -
21/11:00pm 26.1 NE 10 11 1013.9 - 0.0 - - - - - - -
21/10:30pm 26.3 NE 11 13 1013.8 - 0.0 - - - - - - -
21/10:00pm 26.3 NNE 13 15 1013.8 - 0.0 - - - - - - -
21/09:30pm 26.4 NNE 12 16 1014.0 - 0.0 - - - - - - -
21/09:00pm 26.5 NNE 17 19 1013.2 - 0.0 - - - - - - -
21/08:30pm 26.6 NNE 16 17 1013.1 - 0.0 - - - - - - -
21/08:00pm 26.6 NE 15 17 1013.1 - 0.0 - - - - - - -
21/07:30pm 26.6 NE 13 15 1013.2 - 0.0 - - - - - - -
21/07:00pm 26.5 NE 11 13 1012.8 - 0.0 - - - - - - -
21/06:30pm 26.5 ENE 8 10 1012.6 - 0.0 - - - - - - -
21/06:00pm 26.8 ENE 8 9 1012.3 - 0.0 - - - - - - -
21/05:30pm 26.9 ENE 7 9 1011.9 - 0.0 - - - - - - -
21/05:00pm 26.9 ENE 7 9 1011.8 - 0.0 - - - - - - -
21/04:30pm 27.3 ENE 7 8 1011.6 - 0.0 - - - - - - -
21/04:00pm 27.3 ENE 8 9 1011.4 - 0.0 - - - - - - -
21/03:30pm 28.0 E 6 8 1011.5 - 0.0 - - - - - - -
21/03:00pm 27.7 E 5 7 1011.7 - 0.0 - - - - - - -
21/02:30pm 28.4 E 5 7 1012.1 - 0.0 - - - - - - -
21/02:00pm 28.0 E 5 7 1012.4 - 0.0 - - - - - - -
21/01:30pm 28.1 E 6 7 1012.9 - 0.0 - - - - - - -
21/01:00pm 28.7 E 5 7 1013.5 - 0.0 - - - - - - -
21/12:30pm 28.7 E 5 7 1013.7 - 0.0 - - - - - - -
21/12:00pm 28.1 ENE 5 8 1014.1 - 0.0 - - - - - - -
21/11:30am 28.7 E 4 6 1014.4 - 0.0 - - - - - - -
21/11:00am 28.2 S 9 11 1014.8 - 0.0 - - - - - - -
21/10:30am 28.4 E 4 7 1015.3 - 0.0 - - - - - - -
21/10:00am 28.2 E 6 7 1015.6 - 0.0 - - - - - - -
21/09:30am 27.4 E 6 7 1015.5 - 0.0 - - - - - - -
21/09:00am 27.4 E 5 7 1015.2 - 0.0 - - - - - - -
21/08:30am 27.3 E 4 5 1014.7 - 0.0 - - - - - - -
21/08:00am 26.6 E 5 7 1014.3 - 0.0 - - - - - - -
21/07:30am 26.1 ENE 9 10 1013.5 - 0.0 - - - - - - -
21/07:00am 25.6 ENE 10 12 1013.2 - 0.0 - - - - - - -
21/06:30am 25.5 ENE 11 12 1012.7 - 0.0 - - - - - - -
21/06:00am 25.8 ENE 11 12 1012.4 - 0.0 - - - - - - -
21/05:30am 25.6 ENE 11 13 1012.1 - 0.0 - - - - - - -
21/05:00am 25.8 ENE 11 12 1012.1 - 0.0 - - - - - - -
21/04:30am 26.1 ENE 11 13 1011.9 - 0.0 - - - - - - -
21/04:00am 26.0 ENE 12 13 1011.9 - 0.0 - - - - - - -
21/03:30am 25.7 ENE 12 13 1011.9 - 0.0 - - - - - - -
21/03:00am 25.8 E 12 13 1012.0 - 0.0 - - - - - - -
21/02:30am 25.9 E 11 13 1012.1 - 0.0 - - - - - - -
21/02:00am 25.8 E 11 13 1012.3 - 0.0 - - - - - - -
21/01:30am 26.1 E 11 13 1012.6 - 0.0 - - - - - - -
21/01:00am 26.3 E 12 13 1012.8 - 0.0 - - - - - - -
21/12:30am 26.0 E 12 13 1013.0 - 0.0 - - - - - - -
21/12:00am 26.3 ENE 11 12 1013.4 - 0.0 - - - - - - -
 
Date/Time
CST
Temp

°C
Wind Pressure Rain
since 9am
mm
Weather Cloud Vis
km
Sea
Height
m
Swell
Dir
 
Speed
knots
Gust
knots
hPa Trend Height
m
Period
s
Dir
20/11:30pm 26.0 ENE 12 13 1013.5 - 0.0 - - - - - - -
20/11:00pm 26.3 ENE 12 15 1013.5 - 0.0 - - - - - - -
20/10:30pm 26.1 ENE 12 14 1013.5 - 0.0 - - - - - - -
20/10:00pm 26.0 NE 13 15 1013.3 - 0.0 - - - - - - -
20/09:30pm 26.4 NE 14 16 1012.9 - 0.0 - - - - - - -
20/09:00pm 26.3 NE 15 17 1012.6 - 0.0 - - - - - - -
20/08:30pm 26.1 NE 14 16 1012.5 - 0.0 - - - - - - -
20/08:00pm 26.0 NE 14 16 1012.4 - 0.0 - - - - - - -
20/07:30pm 26.1 NE 14 17 1011.9 - 0.0 - - - - - - -
20/07:00pm 26.0 NE 15 17 1011.6 - 0.0 - - - - - - -
20/06:30pm 26.0 NE 15 17 1011.4 - 0.0 - - - - - - -
20/06:00pm 26.3 ENE 14 16 1011.4 - 0.0 - - - - - - -
20/05:30pm 26.7 ENE 14 16 1011.4 - 0.0 - - - - - - -
20/05:00pm 27.0 E 14 16 1011.3 - 0.0 - - - - - - -
20/04:30pm 27.1 ENE 14 16 1011.3 - 0.0 - - - - - - -
20/04:00pm 27.5 E 12 14 1011.3 - 0.0 - - - - - - -
20/03:30pm 27.6 E 12 13 1011.3 - 0.0 - - - - - - -
20/03:00pm 27.9 E 11 13 1011.5 - 0.0 - - - - - - -
20/02:30pm 28.4 E 11 12 1011.9 - 0.0 - - - - - - -
20/02:00pm 28.1 E 11 13 1012.3 - 0.0 - - - - - - -
20/01:30pm 28.3 E 13 15 1012.9 - 0.0 - - - - - - -
20/01:00pm 28.4 E 12 14 1013.5 - 0.0 - - - - - - -
20/12:30pm 28.1 E 11 13 1013.9 - 0.0 - - - - - - -
20/12:00pm 27.8 E 11 13 1014.6 - 0.0 - - - - - - -
20/11:30am 27.9 E 12 13 1014.9 - 0.0 - - - - - - -
20/11:00am 27.5 E 13 15 1015.4 - 0.0 - - - - - - -
20/10:30am 27.1 E 15 17 1015.7 - 0.0 - - - - - - -
20/10:00am 27.1 E 13 15 1015.7 - 0.0 - - - - - - -
20/09:30am 27.1 E 13 14 1015.3 - 0.0 - - - - - - -
20/09:00am 26.9 E 12 13 1015.1 - 0.0 - - - - - - -
20/08:30am 26.8 E 12 14 1014.9 - 0.0 - - - - - - -
20/08:00am 26.2 E 12 14 1014.6 - 0.0 - - - - - - -
20/07:30am 25.7 E 11 13 1014.4 - 0.0 - - - - - - -
20/07:00am 25.5 E 12 13 1013.8 - 0.0 - - - - - - -
20/06:30am 25.3 E 14 16 1013.2 - 0.0 - - - - - - -
20/06:00am 25.3 E 12 14 1013.1 - 0.0 - - - - - - -
20/05:30am 25.6 E 13 15 1012.7 - 0.0 - - - - - - -
20/05:00am 25.6 E 12 13 1012.6 - 0.0 - - - - - - -
20/04:30am 25.6 E 11 12 1012.5 - 0.0 - - - - - - -
20/04:00am 26.1 E 11 13 1012.6 - 0.0 - - - - - - -
20/03:30am 25.6 E 11 13 1012.6 - 0.0 - - - - - - -
20/03:00am 25.8 E 11 12 1012.4 - 0.0 - - - - - - -
20/02:30am 26.0 E 11 13 1012.4 - 0.0 - - - - - - -
20/02:00am 26.0 E 12 14 1012.8 - 0.0 - - - - - - -
20/01:30am 26.0 E 13 15 1013.1 - 0.0 - - - - - - -
20/01:00am 26.0 E 13 14 1013.5 - 0.0 - - - - - - -
20/12:30am 26.1 E 12 15 1013.7 - 0.0 - - - - - - -
20/12:00am 26.3 ENE 14 16 1014.1 - 0.0 - - - - - - -
 
Date/Time
CST
Temp

°C
Wind Pressure Rain
since 9am
mm
Weather Cloud Vis
km
Sea
Height
m
Swell
Dir
 
Speed
knots
Gust
knots
hPa Trend Height
m
Period
s
Dir
19/11:30pm 26.7 ENE 14 16 1014.4 - 0.0 - - - - - - -
19/11:00pm 26.7 E 16 18 1014.5 - 0.0 - - - - - - -
19/10:30pm 26.6 E 15 18 1014.5 - 0.0 - - - - - - -
19/10:00pm 26.8 ENE 16 19 1014.5 - 0.0 - - - - - - -
19/09:30pm 27.0 ENE 17 19 1014.2 - 0.0 - - - - - - -
19/09:00pm 26.9 ENE 17 20 1013.8 - 0.0 - - - - - - -
19/08:30pm 27.1 ENE 18 21 1013.3 - 0.0 - - - - - - -
19/08:00pm 26.9 ENE 18 22 1012.9 - 0.0 - - - - - - -
19/07:30pm 27.0 ENE 18 21 1012.5 - 0.0 - - - - - - -
19/07:00pm 27.0 ENE 18 21 1012.0 - 0.0 - - - - - - -
19/06:30pm 27.0 NE 17 19 1011.6 - 0.0 - - - - - - -
19/06:00pm 26.8 NE 15 18 1011.3 - 0.0 - - - - - - -
19/05:30pm 26.8 NE 15 17 1011.3 - 0.0 - - - - - - -
19/05:00pm 26.8 ENE 13 15 1011.4 - 0.0 - - - - - - -
19/04:30pm 27.3 E 12 14 1011.5 - 0.0 - - - - - - -
19/04:00pm 27.6 E 12 13 1011.7 - 0.0 - - - - - - -
19/03:30pm 27.7 E 11 13 1011.8 - 0.0 - - - - - - -
19/03:00pm 27.7 E 11 13 1012.0 - 0.0 - - - - - - -
19/02:30pm 27.9 ESE 12 15 1012.3 - 0.0 - - - - - - -
19/02:00pm 27.8 ESE 12 15 1012.5 - 0.0 - - - - - - -
19/01:30pm 27.6 E 13 14 1012.9 - 0.0 - - - - - - -
19/01:00pm 27.5 E 11 13 1013.2 - 0.0 - - - - - - -
19/12:30pm 27.5 E 12 14 1013.7 - 0.0 - - - - - - -
19/12:00pm 28.0 ESE 12 14 1014.1 - 0.0 - - - - - - -
19/11:30am 27.4 ESE 13 15 1014.6 - 0.0 - - - - - - -
19/11:00am 27.7 ESE 13 16 1014.9 - 0.0 - - - - - - -
19/10:30am 27.1 ESE 12 14 1015.1 - 0.0 - - - - - - -
19/10:00am 27.6 ESE 12 13 1015.3 - 0.0 - - - - - - -
19/09:30am 26.8 ESE 12 13 1015.4 - 0.0 - - - - - - -
19/09:00am 26.8 ESE 10 11 1015.1 - 0.0 - - - - - - -
19/08:30am 26.3 ESE 9 11 1014.8 - 0.0 - - - - - - -
19/08:00am 26.1 E 8 10 1014.6 - 0.0 - - - - - - -
19/07:30am 24.8 ESE 7 9 1014.3 - 0.0 - - - - - - -
19/07:00am 23.6 ESE 7 8 1014.0 - 0.0 - - - - - - -
19/06:30am 23.4 SE 8 10 1013.7 - 0.0 - - - - - - -
19/06:00am 23.6 SE 9 11 1013.5 - 0.0 - - - - - - -
19/05:30am 23.7 SE 9 11 1013.1 - 0.0 - - - - - - -
19/05:00am 23.7 SE 8 10 1013.1 - 0.0 - - - - - - -
19/04:30am 23.5 SE 7 8 1012.9 - 0.0 - - - - - - -
19/04:00am 24.0 SE 7 9 1013.0 - 0.0 - - - - - - -
19/03:30am 25.2 E 11 13 1013.0 - 0.0 - - - - - - -
19/03:00am 25.8 E 12 13 1013.1 - 0.0 - - - - - - -
19/02:30am 25.6 E 13 14 1013.3 - 0.0 - - - - - - -
19/02:00am 25.7 E 13 15 1013.6 - 0.0 - - - - - - -

Other Formats:

Comma delimited format used in spreadsheet applications
http://www.bom.gov.au/fwo/IDD60701/IDD60701.94135.axf

JavaScript Object Notation format (JSON) in row-major order
http://www.bom.gov.au/fwo/IDD60701/IDD60701.94135.json